• Join FlightAware (Why Join?)
  • Login
  • US Flag 
05:58PM EDT


 

Airport Tracker/Info


-or-


 

Live Flight TrackerFlight Track Log ✈ HAL118 ✈ 21-Jun-2013 ✈ PHNL - PHKO / KOA

Flight Track Log - Related Links

Times and Time Zones

All times are in EDT time to prevent confusion due to time zone crossing. See the HAL118 flight status page for this flight to view local times or setup timezone preferences in your user account.

Time Position Orientation Groundspeed Altitude Reporting Facility
EDT Latitude Longitude Course Direction KTS MPH feet Rate Location/Type
01:21PM 21.3167 -157.9000 118° Southeast 170 196 1,100  Level Honolulu Center
01:22PM 21.2667 -157.8667 148° Southeast 230 265 2,500 1,980 Climbing Honolulu Center
01:23PM 21.2167 -157.8333 148° Southeast 220 253 5,100 2,220 Climbing Honolulu Center
01:24PM 21.1729 -157.6821 113° Southeast  Level FlightAware Approximate
01:24PM 21.1833 -157.7667 118° Southeast 250 288 7,000  Level Honolulu Center
01:25PM 21.1245 -157.6034 126° Southeast  Level FlightAware Approximate
01:25PM 21.1500 -157.6833 113° Southeast 280 322 8,800  Level Honolulu Center
01:26PM 21.0782 -157.5231 118° Southeast  Level FlightAware Approximate
01:26PM 21.1167 -157.6167 118° Southeast 300 345 10,400  Level Honolulu Center
01:27PM 21.0833 -157.5167 110° East 340 391 11,600 1,380 Climbing Honolulu Center
01:28PM 21.0167 -157.4333 131° Southeast 360 414 13,200 1,680 Climbing Honolulu Center
01:29PM 20.9500 -157.3500 131° Southeast 370 426 15,000 1,800 Climbing Honolulu Center
01:30PM 20.8833 -157.2667 131° Southeast 380 437 16,800 1,980 Climbing Honolulu Center
01:31PM 20.8167 -157.1833 131° Southeast 370 426 19,000 1,080 Climbing Honolulu Center
01:32PM 20.7500 -157.1000 131° Southeast 360 414 19,000  Level Honolulu Center
01:33PM 20.6833 -157.0000 125° Southeast 360 414 19,000  Level Honolulu Center
01:34PM 20.6167 -156.9333 137° Southeast 370 426 19,000  Level Honolulu Center
01:35PM 20.5500 -156.8333 125° Southeast 370 426 19,000  Level Honolulu Center
01:36PM 20.4833 -156.7500 130° Southeast 370 426 19,000 -120 Level Honolulu Center
01:37PM 20.4167 -156.6667 130° Southeast 370 426 18,800 -1,200 Descending Honolulu Center
01:38PM 20.3667 -156.5833 123° Southeast 360 414 16,600 -2,340 Descending Honolulu Center
01:39PM 20.3000 -156.5167 137° Southeast 350 403 14,200 -2,520 Descending Honolulu Center
01:40PM 20.2333 -156.4333 130° Southeast 340 391 11,600 -1,860 Descending Honolulu Center
01:41PM 20.1833 -156.3500 123° Southeast 320 368 10,500 -1,500 Descending Honolulu Center
01:42PM 20.1333 -156.2833 129° Southeast 290 334 8,600 -1,680 Descending Honolulu Center
01:43PM 20.0833 -156.2333 137° Southeast 280 322 7,200 -1,500 Descending Honolulu Center
01:44PM 20.0167 -156.1833 145° Southeast 260 299 5,700 -1,740 Descending Honolulu Center
01:45PM 19.9667 -156.1333 137° Southeast 260 299 3,800 -1,320 Descending Honolulu Center
01:46PM 19.9000 -156.1000 155° Southeast 240 276 3,100 -720 Descending Honolulu Center